| time (UTC) | temp C | wind direction | speed KPH | gust KPH | rain 1hr cm | rain 24hr cm | rain mn cm | humidity % | barometer mb |
| 20260510203050 | 31 | 214 | 3.2 | 4.8 | 0.00 | 0.00 | 0.00 | 31 | 1014.0 |
| 20260510202027 | 31 | 75 | 1.6 | 8.0 | 0.00 | 0.00 | 0.00 | 34 | 1014.1 |
| 20260510201115 | 31 | 265 | 3.2 | 8.0 | 0.00 | 0.00 | 0.00 | 32 | 1014.0 |
| 20260510200026 | 31 | 126 | 1.6 | 6.4 | 0.00 | 0.00 | 0.00 | 31 | 1014.0 |
| 20260510195034 | 30 | 317 | 3.2 | 6.4 | 0.00 | 0.00 | 0.00 | 34 | 1014.0 |
| 20260510194044 | 30 | 224 | 3.2 | 8.0 | 0.00 | 0.00 | 0.00 | 35 | 1014.1 |
| 20260510193050 | 30 | 242 | 1.6 | 4.8 | 0.00 | 0.00 | 0.00 | 33 | 1014.3 |
| 20260510192052 | 30 | 153 | 0.0 | 4.8 | 0.00 | 0.00 | 0.00 | 31 | 1014.5 |
| 20260510191111 | 30 | 175 | 1.6 | 4.8 | 0.00 | 0.00 | 0.00 | 31 | 1014.4 |
| 20260510190027 | 31 | 155 | 3.2 | 9.7 | 0.00 | 0.00 | 0.00 | 32 | 1014.7 |
| 20260510185031 | 31 | 338 | 3.2 | 12.9 | 0.00 | 0.00 | 0.00 | 33 | 1014.8 |
| 20260510184041 | 31 | 211 | 4.8 | 9.7 | 0.00 | 0.00 | 0.00 | 32 | 1014.7 |
| 20260510183047 | 31 | 19 | 1.6 | 3.2 | 0.00 | 0.00 | 0.00 | 34 | 1014.9 |
| 20260510182110 | 31 | 105 | 1.6 | 6.4 | 0.00 | 0.00 | 0.00 | 34 | 1015.2 |
| 20260510181109 | 31 | 242 | 0.0 | 6.4 | 0.00 | 0.00 | 0.00 | 33 | 1015.1 |
| 20260510180049 | 30 | 233 | 1.6 | 3.2 | 0.00 | 0.00 | 0.00 | 34 | 1015.3 |
| 20260510175051 | 30 | 72 | 1.6 | 8.0 | 0.00 | 0.00 | 0.00 | 35 | 1015.2 |
| 20260510174052 | 30 | 225 | 3.2 | 8.0 | 0.00 | 0.00 | 0.00 | 34 | 1015.3 |
| 20260510173056 | 30 | 175 | 1.6 | 4.8 | 0.00 | 0.00 | 0.00 | 34 | 1015.3 |
| 20260510172100 | 30 | 78 | 1.6 | 4.8 | 0.00 | 0.00 | 0.00 | 33 | 1015.5 |
| 20260510171058 | 29 | 188 | 4.8 | 9.7 | 0.00 | 0.00 | 0.00 | 34 | 1015.4 |
| 20260510170058 | 29 | 184 | 4.8 | 8.0 | 0.00 | 0.00 | 0.00 | 35 | 1015.3 |
| 20260510165044 | 28 | 78 | 3.2 | 6.4 | 0.00 | 0.00 | 0.00 | 39 | 1015.3 |
| 20260510164044 | 28 | 87 | 1.6 | 4.8 | 0.00 | 0.00 | 0.00 | 36 | 1015.5 |
| 20260510163036 | 27 | 327 | 1.6 | 6.4 | 0.00 | 0.00 | 0.00 | 37 | 1015.5 |
| 20260510162034 | 27 | 66 | 3.2 | 9.7 | 0.00 | 0.00 | 0.00 | 41 | 1015.5 |
| 20260510161053 | 26 | 204 | 1.6 | 3.2 | 0.00 | 0.00 | 0.00 | 47 | 1015.6 |
| 20260510160029 | 26 | 166 | 1.6 | 4.8 | 0.00 | 0.00 | 0.00 | 47 | 1015.8 |
| 20260510155111 | 26 | 155 | 3.2 | 8.0 | 0.00 | 0.00 | 0.00 | 46 | 1015.6 |
| 20260510154030 | 25 | 128 | 1.6 | 4.8 | 0.00 | 0.00 | 0.00 | 50 | 1015.9 |
| 20260510153042 | 25 | 175 | 1.6 | 4.8 | 0.00 | 0.00 | 0.00 | 53 | 1016.0 |
| 20260510152040 | 24 | 219 | 3.2 | 8.0 | 0.00 | 0.00 | 0.00 | 55 | 1015.9 |
| 20260510151100 | 24 | 141 | 0.0 | 4.8 | 0.00 | 0.00 | 0.00 | 59 | 1015.8 |
| 20260510150032 | 23 | 149 | 0.0 | 6.4 | 0.00 | 0.00 | 0.00 | 61 | 1015.7 |
| 20260510145027 | 22 | 225 | 0.0 | 4.8 | 0.00 | 0.00 | 0.00 | 68 | 1015.8 |
| 20260510144045 | 22 | 190 | 3.2 | 6.4 | 0.00 | 0.00 | 0.00 | 72 | 1015.6 |
| 20260510143038 | 21 | 229 | 1.6 | 3.2 | 0.00 | 0.00 | 0.00 | 74 | 1015.6 |
| 20260510142037 | 20 | 184 | 1.6 | 4.8 | 0.00 | 0.00 | 0.00 | 78 | 1015.4 |
| 20260510141047 | 20 | 213 | 0.0 | 4.8 | 0.00 | 0.00 | 0.00 | 81 | 1015.6 |
| 20260510140039 | 19 | 87 | 0.0 | 4.8 | 0.00 | 0.00 | 0.00 | 87 | 1015.8 |
| 20260510135037 | 18 | 244 | 0.0 | 6.4 | 0.00 | 0.00 | 0.00 | 91 | 1015.6 |
| 20260510134036 | 17 | 212 | 1.6 | 6.4 | 0.00 | 0.00 | 0.00 | 94 | 1015.9 |
| 20260510133032 | 17 | 259 | 1.6 | 8.0 | 0.00 | 0.00 | 0.00 | 96 | 1015.9 |
| 20260510132027 | 17 | 248 | 3.2 | 6.4 | 0.00 | 0.00 | 0.00 | 96 | 1015.8 |
| 20260510131106 | 16 | 182 | 1.6 | 4.8 | 0.00 | 0.00 | 0.00 | 97 | 1015.7 |
| 20260510130041 | 16 | 346 | 0.0 | 3.2 | 0.00 | 0.00 | 0.00 | 97 | 1015.4 |
| 20260510125035 | 16 | 245 | 0.0 | 3.2 | 0.00 | 0.00 | 0.00 | 97 | 1015.2 |
| 20260510124036 | 15 | 223 | 0.0 | 4.8 | 0.00 | 0.00 | 0.00 | 97 | 1015.1 |
| 20260510123101 | 15 | 200 | 0.0 | 3.2 | 0.00 | 0.00 | 0.00 | 97 | 1015.1 |
| 20260510122035 | 14 | 190 | 0.0 | 1.6 | 0.00 | 0.00 | 0.00 | 96 | 1015.1 |
| 20260510121113 | 14 | 190 | 0.0 | 0.0 | 0.00 | 0.00 | 0.00 | 95 | 1015.0 |
| 20260510120028 | 13 | 190 | 0.0 | 0.0 | 0.00 | 0.00 | 0.00 | 95 | 1014.7 |
| 20260510115051 | 13 | 190 | 0.0 | 0.0 | 0.00 | 0.00 | 0.00 | 95 | 1014.8 |
| 20260510114031 | 13 | 190 | 0.0 | 0.0 | 0.00 | 0.00 | 0.00 | 95 | 1014.6 |
| 20260510113049 | 13 | 190 | 0.0 | 0.0 | 0.00 | 0.00 | 0.00 | 95 | 1014.6 |
| 20260510112046 | 13 | 190 | 0.0 | 0.0 | 0.00 | 0.00 | 0.00 | 94 | 1014.5 |
| 20260510111104 | 13 | 190 | 0.0 | 0.0 | 0.00 | 0.00 | 0.00 | 94 | 1014.2 |
| 20260510110039 | 13 | 190 | 0.0 | 0.0 | 0.00 | 0.00 | 0.00 | 94 | 1014.1 |
| 20260510105033 | 13 | 190 | 0.0 | 0.0 | 0.00 | 0.00 | 0.00 | 94 | 1014.0 |
| 20260510104032 | 13 | 190 | 0.0 | 0.0 | 0.00 | 0.00 | 0.00 | 94 | 1013.8 |
| 20260510103052 | 13 | 190 | 0.0 | 0.0 | 0.00 | 0.00 | 0.00 | 94 | 1013.5 |
| 20260510102046 | 13 | 191 | 0.0 | 0.0 | 0.00 | 0.00 | 0.00 | 94 | 1013.4 |
| 20260510101106 | 13 | 191 | 0.0 | 0.0 | 0.00 | 0.00 | 0.00 | 93 | 1013.4 |
| 20260510100037 | 13 | 191 | 0.0 | 0.0 | 0.00 | 0.00 | 0.00 | 93 | 1013.2 |
| 20260510095031 | 13 | 191 | 0.0 | 0.0 | 0.00 | 0.00 | 0.00 | 93 | 1013.0 |
| 20260510094040 | 13 | 191 | 0.0 | 0.0 | 0.00 | 0.00 | 0.00 | 93 | 1013.0 |
| 20260510093105 | 13 | 191 | 0.0 | 0.0 | 0.00 | 0.00 | 0.00 | 93 | 1012.9 |
| 20260510092047 | 13 | 191 | 0.0 | 0.0 | 0.00 | 0.00 | 0.00 | 93 | 1013.0 |
| 20260510091104 | 13 | 191 | 0.0 | 0.0 | 0.00 | 0.00 | 0.00 | 93 | 1012.8 |
| 20260510090048 | 14 | 191 | 0.0 | 0.0 | 0.00 | 0.00 | 0.00 | 93 | 1012.7 |
| 20260510085041 | 14 | 191 | 0.0 | 0.0 | 0.00 | 0.00 | 0.00 | 93 | 1012.5 |
| 20260510084048 | 14 | 191 | 0.0 | 0.0 | 0.00 | 0.00 | 0.00 | 93 | 1012.5 |
| 20260510083028 | 14 | 191 | 0.0 | 0.0 | 0.00 | 0.00 | 0.00 | 93 | 1012.5 |
| 20260510082051 | 14 | 191 | 0.0 | 0.0 | 0.00 | 0.00 | 0.00 | 93 | 1012.4 |
| 20260510081113 | 14 | 191 | 0.0 | 0.0 | 0.00 | 0.00 | 0.00 | 93 | 1012.6 |
| 20260510080029 | 14 | 191 | 0.0 | 0.0 | 0.00 | 0.00 | 0.00 | 93 | 1012.4 |
| 20260510075051 | 14 | 191 | 0.0 | 0.0 | 0.00 | 0.00 | 0.00 | 93 | 1012.5 |
| 20260510074032 | 14 | 191 | 0.0 | 0.0 | 0.00 | 0.00 | 0.00 | 92 | 1012.4 |
| 20260510073038 | 14 | 191 | 0.0 | 0.0 | 0.00 | 0.00 | 0.00 | 92 | 1012.4 |
| 20260510072046 | 14 | 191 | 0.0 | 0.0 | 0.00 | 0.00 | 0.00 | 92 | 1012.3 |
| 20260510071102 | 14 | 191 | 0.0 | 0.0 | 0.00 | 0.00 | 0.00 | 92 | 1012.3 |
| 20260510070047 | 14 | 191 | 0.0 | 0.0 | 0.00 | 0.00 | 0.00 | 92 | 1012.3 |
| 20260510065026 | 14 | 191 | 0.0 | 0.0 | 0.00 | 0.00 | 0.00 | 91 | 1012.2 |
| 20260510064051 | 14 | 191 | 0.0 | 0.0 | 0.00 | 0.00 | 0.00 | 92 | 1012.3 |
| 20260510063026 | 14 | 191 | 0.0 | 0.0 | 0.00 | 0.00 | 0.00 | 91 | 1012.1 |
| 20260510062033 | 14 | 191 | 0.0 | 0.0 | 0.00 | 0.00 | 0.00 | 91 | 1012.1 |
| 20260510061117 | 15 | 191 | 0.0 | 0.0 | 0.00 | 0.00 | 0.00 | 91 | 1012.3 |
| 20260510060041 | 15 | 191 | 0.0 | 0.0 | 0.00 | 0.00 | 0.00 | 92 | 1012.4 |
| 20260510055050 | 15 | 191 | 0.0 | 0.0 | 0.00 | 0.00 | 0.00 | 91 | 1012.5 |
| 20260510054030 | 15 | 191 | 0.0 | 0.0 | 0.00 | 0.00 | 0.00 | 91 | 1012.6 |
| 20260510053033 | 15 | 191 | 0.0 | 0.0 | 0.00 | 0.00 | 0.00 | 91 | 1012.5 |
| 20260510052041 | 15 | 191 | 0.0 | 0.0 | 0.00 | 0.00 | 0.00 | 91 | 1012.8 |
| 20260510051100 | 15 | 191 | 0.0 | 0.0 | 0.00 | 0.00 | 0.00 | 90 | 1012.9 |
| 20260510050033 | 15 | 191 | 0.0 | 0.0 | 0.00 | 0.00 | 0.00 | 91 | 1012.9 |
| 20260510045031 | 15 | 191 | 0.0 | 0.0 | 0.00 | 0.00 | 0.00 | 90 | 1013.0 |
| 20260510044101 | 15 | 191 | 0.0 | 0.0 | 0.00 | 0.00 | 0.00 | 90 | 1012.9 |
| 20260510043032 | 15 | 191 | 0.0 | 0.0 | 0.00 | 0.00 | 0.00 | 89 | 1012.6 |
| 20260510042030 | 15 | 191 | 0.0 | 0.0 | 0.00 | 0.00 | 0.00 | 89 | 1012.8 |
| 20260510041050 | 15 | 191 | 0.0 | 0.0 | 0.00 | 0.00 | 0.00 | 89 | 1012.7 |
| 20260510040050 | 15 | 191 | 0.0 | 0.0 | 0.00 | 0.00 | 0.00 | 88 | 1012.7 |
| 20260510035040 | 15 | 191 | 0.0 | 0.0 | 0.00 | 0.00 | 0.00 | 88 | 1012.6 |
| 20260510034042 | 16 | 191 | 0.0 | 0.0 | 0.00 | 0.00 | 0.00 | 88 | 1012.6 |
| 20260510033038 | 16 | 191 | 0.0 | 0.0 | 0.00 | 0.00 | 0.00 | 87 | 1012.5 |
| 20260510032037 | 16 | 191 | 0.0 | 0.0 | 0.00 | 0.00 | 0.00 | 87 | 1012.6 |
| 20260510031049 | 16 | 191 | 0.0 | 1.6 | 0.00 | 0.00 | 0.00 | 87 | 1012.6 |
| 20260510030041 | 16 | 191 | 0.0 | 0.0 | 0.00 | 0.00 | 0.00 | 86 | 1012.4 |
| 20260510025038 | 16 | 191 | 0.0 | 0.0 | 0.00 | 0.00 | 0.00 | 86 | 1012.2 |
| 20260510024040 | 16 | 191 | 0.0 | 0.0 | 0.00 | 0.00 | 0.00 | 86 | 1012.3 |
| 20260510023033 | 17 | 191 | 0.0 | 0.0 | 0.00 | 0.00 | 0.00 | 85 | 1012.3 |
| 20260510022032 | 17 | 191 | 0.0 | 0.0 | 0.00 | 0.00 | 0.00 | 85 | 1012.1 |
| 20260510021113 | 17 | 191 | 0.0 | 0.0 | 0.00 | 0.00 | 0.00 | 85 | 1012.3 |
| 20260510020027 | 17 | 191 | 0.0 | 0.0 | 0.00 | 0.00 | 0.00 | 84 | 1012.0 |
| 20260510015027 | 18 | 191 | 0.0 | 0.0 | 0.00 | 0.00 | 0.00 | 83 | 1011.9 |
| 20260510014056 | 18 | 191 | 0.0 | 0.0 | 0.00 | 0.00 | 0.00 | 83 | 1011.8 |
| 20260510013028 | 18 | 191 | 0.0 | 0.0 | 0.00 | 0.00 | 0.00 | 82 | 1011.7 |
| 20260510012030 | 18 | 191 | 0.0 | 0.0 | 0.00 | 0.00 | 0.00 | 81 | 1011.3 |
| 20260510011048 | 19 | 191 | 0.0 | 0.0 | 0.00 | 0.00 | 0.00 | 80 | 1011.2 |
| 20260510010025 | 19 | 191 | 0.0 | 0.0 | 0.00 | 0.00 | 0.00 | 79 | 1011.2 |
| 20260510005049 | 20 | 191 | 0.0 | 0.0 | 0.00 | 0.00 | 0.00 | 78 | 1011.2 |
| 20260510004034 | 20 | 191 | 0.0 | 0.0 | 0.00 | 0.00 | 0.00 | 78 | 1011.2 |
| 20260510003028 | 20 | 191 | 0.0 | 0.0 | 0.00 | 0.00 | 0.00 | 78 | 1011.2 |
| 20260510002028 | 21 | 191 | 0.0 | 0.0 | 0.00 | 0.00 | 0.00 | 77 | 1011.1 |
| 20260510001047 | 21 | 191 | 0.0 | 0.0 | 0.00 | 0.00 | 0.00 | 76 | 1011.1 |
| 20260510000048 | 21 | 191 | 0.0 | 1.6 | 0.00 | 0.00 | 0.00 | 74 | 1010.9 |
| 20260509235046 | 21 | 191 | 0.0 | 1.6 | 0.00 | 0.00 | 0.00 | 74 | 1010.8 |
| 20260509234026 | 22 | 259 | 0.0 | 3.2 | 0.00 | 0.00 | 0.00 | 73 | 1010.6 |
| 20260509233031 | 22 | 238 | 1.6 | 3.2 | 0.00 | 0.00 | 0.00 | 72 | 1010.7 |
| 20260509232026 | 22 | 191 | 1.6 | 3.2 | 0.00 | 0.00 | 0.00 | 71 | 1010.5 |
| 20260509231047 | 22 | 180 | 1.6 | 4.8 | 0.00 | 0.00 | 0.00 | 71 | 1010.3 |
| 20260509230032 | 22 | 198 | 1.6 | 9.7 | 0.00 | 0.00 | 0.00 | 70 | 1010.2 |
| 20260509225036 | 22 | 243 | 3.2 | 11.3 | 0.00 | 0.00 | 0.00 | 69 | 1010.2 |
| 20260509224045 | 23 | 286 | 4.8 | 11.3 | 0.00 | 0.00 | 0.00 | 68 | 1010.3 |
| 20260509223110 | 23 | 263 | 3.2 | 12.9 | 0.00 | 0.00 | 0.00 | 67 | 1010.4 |
| 20260509222025 | 23 | 290 | 3.2 | 11.3 | 0.00 | 0.00 | 0.00 | 67 | 1010.4 |
| 20260509221109 | 23 | 268 | 3.2 | 16.1 | 0.00 | 0.00 | 0.00 | 68 | 1010.4 |
| 20260509220025 | 22 | 234 | 3.2 | 9.7 | 0.00 | 0.00 | 0.00 | 69 | 1010.4 |
| 20260509215034 | 22 | 198 | 3.2 | 9.7 | 0.00 | 0.00 | 0.00 | 69 | 1010.4 |
| 20260509214040 | 22 | 263 | 3.2 | 12.9 | 0.00 | 0.00 | 0.00 | 68 | 1010.5 |
| 20260509213045 | 23 | 311 | 4.8 | 11.3 | 0.00 | 0.00 | 0.00 | 67 | 1010.1 |
| 20260509212101 | 23 | 342 | 3.2 | 11.3 | 0.00 | 0.00 | 0.00 | 67 | 1010.1 |
| 20260509211123 | 23 | 195 | 1.6 | 8.0 | 0.00 | 0.00 | 0.00 | 67 | 1010.0 |
| 20260509210048 | 23 | 177 | 4.8 | 11.3 | 0.00 | 0.00 | 0.00 | 65 | 1010.2 |
| 20260509205027 | 23 | 222 | 3.2 | 11.3 | 0.00 | 0.00 | 0.00 | 66 | 1010.2 |
| 20260509204051 | 23 | 200 | 3.2 | 9.7 | 0.00 | 0.00 | 0.00 | 65 | 1010.2 |